Time;durP1;ratioP1;P1;durP2;ratioP2;P2;SDS_P1;SDS_P2;PMS_P1;PMS_P2;Temp;Humidity;BMP_temperature;BMP_pressure;BME280_temperature;BME280_humidity;BME280_pressure;Samples;Min_cycle;Max_cycle;Signal;HPM_P1;HPM_P2
2022/06/24 00:01:57;;;;;;;3.47;1.80;;;;;;;20.46;71.11;99539.44;5041738;28;20033;-84
2022/06/24 00:04:28;;;;;;;4.05;2.58;;;;;;;20.48;71.20;99537.50;5045567;28;20105;-85
2022/06/24 00:06:58;;;;;;;2.85;1.63;;;;;;;20.17;71.52;99497.34;5046960;28;20035;-84
2022/06/24 00:09:30;;;;;;;2.33;1.88;;;;;;;20.31;71.55;99517.06;5047308;28;20036;-84
2022/06/24 00:12:07;;;;;;;1.80;1.17;;;;;;;20.17;71.62;99504.47;5034450;28;20033;-84
2022/06/24 00:14:35;;;;;;;3.65;2.33;;;;;;;20.32;71.33;99534.88;5045407;28;20095;-85
2022/06/24 00:17:03;;;;;;;5.63;2.17;;;;;;;20.09;72.29;99538.88;5047055;28;20035;-86
2022/06/24 00:19:31;;;;;;;4.55;1.60;;;;;;;19.88;71.83;99493.66;5046261;28;20060;-85
2022/06/24 00:21:57;;;;;;;5.45;2.97;;;;;;;20.12;72.29;99547.59;5047388;28;20043;-85
2022/06/24 00:24:22;;;;;;;3.92;2.17;;;;;;;20.20;71.40;99534.66;5029428;28;20423;-85
2022/06/24 00:26:48;;;;;;;2.40;1.83;;;;;;;19.96;72.03;99523.50;5045660;28;20079;-86
2022/06/24 00:29:17;;;;;;;3.10;2.25;;;;;;;20.01;71.86;99518.75;5045765;28;20033;-86
2022/06/24 00:32:00;;;;;;;4.40;2.50;;;;;;;19.92;71.81;99513.06;5046093;28;20040;-86
2022/06/24 00:34:26;;;;;;;4.70;2.85;;;;;;;19.76;72.95;99508.53;5038128;28;20039;-86
2022/06/24 00:36:51;;;;;;;3.72;1.98;;;;;;;19.49;73.11;99478.81;5027655;28;20029;-85
2022/06/24 00:39:17;;;;;;;3.80;1.88;;;;;;;19.65;73.90;99522.50;5028063;28;20030;-85
2022/06/24 00:41:42;;;;;;;4.50;1.50;;;;;;;19.54;74.06;99502.63;5027168;28;20025;-85
2022/06/24 00:44:12;;;;;;;2.55;1.58;;;;;;;19.55;74.00;99507.91;5027497;28;20399;-85
2022/06/24 00:46:42;;;;;;;3.33;2.63;;;;;;;19.65;73.70;99522.50;5026451;28;20095;-85
2022/06/24 00:49:10;;;;;;;1.85;1.48;;;;;;;19.73;73.06;99519.41;5042328;28;20044;-85
2022/06/24 00:51:37;;;;;;;3.13;2.03;;;;;;;19.70;72.55;99516.06;5046900;28;20748;-85
2022/06/24 00:54:13;;;;;;;2.38;1.30;;;;;;;19.31;72.71;99484.25;5046772;28;20068;-86
2022/06/24 00:56:39;;;;;;;2.97;1.92;;;;;;;19.08;73.04;99485.47;5047368;28;20132;-85
2022/06/24 00:59:06;;;;;;;1.77;1.67;;;;;;;19.03;73.85;99514.28;5030261;28;20040;-86
2022/06/24 01:01:41;;;;;;;3.42;1.27;;;;;;;18.87;74.20;99502.66;5027078;28;20045;-86
2022/06/24 01:04:08;;;;;;;2.43;1.40;;;;;;;19.07;74.36;99521.16;5026957;28;20095;-87
2022/06/24 01:06:35;;;;;;;1.45;1.33;;;;;;;19.12;73.70;99531.63;5033486;28;20040;-86
2022/06/24 01:09:02;;;;;;;2.80;1.20;;;;;;;19.23;72.96;99523.91;5031755;28;20450;-87
2022/06/24 01:11:32;;;;;;;2.45;1.65;;;;;;;19.24;72.96;99519.41;5046717;28;20040;-86
2022/06/24 01:13:58;;;;;;;2.70;1.50;;;;;;;19.20;73.69;99541.91;5046693;28;20041;-86
2022/06/24 01:16:24;;;;;;;3.25;1.42;;;;;;;19.13;73.97;99544.91;5046134;28;20029;-86
2022/06/24 01:19:02;;;;;;;3.22;1.60;;;;;;;19.00;74.25;99524.25;5028564;28;20040;-85
2022/06/24 01:21:41;;;;;;;2.50;1.83;;;;;;;19.10;74.17;99534.38;5045395;28;20082;-85
2022/06/24 01:24:15;;;;;;;2.95;1.88;;;;;;;19.04;74.08;99526.69;5046331;28;20036;-86
2022/06/24 01:26:52;;;;;;;2.15;1.77;;;;;;;19.01;74.29;99515.28;5046755;28;20513;-85
2022/06/24 01:29:19;;;;;;;1.88;1.70;;;;;;;19.15;72.81;99499.38;5044361;28;20021;-84
2022/06/24 01:31:48;;;;;;;2.40;2.20;;;;;;;19.28;73.08;99535.22;5026507;28;20040;-84
2022/06/24 01:34:16;;;;;;;1.42;1.33;;;;;;;19.43;72.55;99543.34;5036279;28;20036;-84
2022/06/24 01:36:41;;;;;;;2.00;1.40;;;;;;;19.46;72.46;99541.41;5026292;28;20033;-84
2022/06/24 01:39:07;;;;;;;2.70;1.48;;;;;;;19.39;71.77;99520.41;5025512;28;20879;-85
2022/06/24 01:41:34;;;;;;;1.50;1.40;;;;;;;19.32;72.33;99536.78;5026601;28;20401;-84
2022/06/24 01:43:59;;;;;;;2.30;1.25;;;;;;;19.22;73.21;99527.53;5045891;28;20025;-84
2022/06/24 01:46:25;;;;;;;4.68;2.47;;;;;;;19.32;72.51;99514.50;5045885;28;20036;-84
2022/06/24 01:48:51;;;;;;;1.55;1.20;;;;;;;19.32;72.70;99530.56;5046281;28;20487;-85
2022/06/24 01:51:19;;;;;;;6.22;2.13;;;;;;;19.31;72.06;99526.19;5028773;28;20025;-84
2022/06/24 01:53:45;;;;;;;2.90;1.83;;;;;;;19.33;72.32;99538.50;5037972;28;20551;-84
2022/06/24 01:56:10;;;;;;;3.45;2.60;;;;;;;19.42;71.97;99538.97;5044531;28;20071;-84
2022/06/24 01:58:36;;;;;;;4.53;3.30;;;;;;;19.30;72.73;99532.47;5045998;28;20131;-84
2022/06/24 02:01:02;;;;;;;4.32;2.50;;;;;;;19.40;73.10;99552.41;5049406;28;20414;-84
2022/06/24 02:03:32;;;;;;;3.58;1.90;;;;;;;19.22;73.45;99538.22;5039716;28;20671;-83
2022/06/24 02:06:02;;;;;;;2.05;1.35;;;;;;;19.22;73.77;99532.88;5029036;28;20037;-85
2022/06/24 02:08:28;;;;;;;3.28;1.88;;;;;;;19.27;74.50;99546.00;5029645;28;20492;-85
2022/06/24 02:13:37;;;;;;;3.80;1.85;;;;;;;19.07;74.01;99515.81;5036752;28;20044;-84
2022/06/24 02:16:04;;;;;;;2.47;1.63;;;;;;;19.23;74.24;99534.59;5029767;28;20061;-84
2022/06/24 02:18:31;;;;;;;2.15;1.83;;;;;;;19.21;74.24;99525.78;5030129;28;20034;-84
2022/06/24 02:20:59;;;;;;;1.77;1.38;;;;;;;19.12;74.38;99535.19;5037374;28;20563;-85
2022/06/24 02:23:25;;;;;;;7.47;2.83;;;;;;;19.04;74.56;99526.69;5049659;28;20032;-85
2022/06/24 02:25:52;;;;;;;6.55;2.08;;;;;;;19.15;74.15;99531.47;5049650;28;20032;-84
2022/06/24 02:28:17;;;;;;;2.95;1.60;;;;;;;18.96;74.61;99540.44;5049436;28;20037;-84
2022/06/24 02:30:45;;;;;;;3.50;1.67;;;;;;;18.79;74.71;99509.22;5044009;28;20044;-84
2022/06/24 02:33:11;;;;;;;2.17;1.85;;;;;;;18.67;75.94;99549.94;5029211;28;20041;-86
2022/06/24 02:35:38;;;;;;;2.25;1.60;;;;;;;18.46;76.69;99518.94;5029462;28;20030;-84
2022/06/24 02:38:05;;;;;;;5.63;2.65;;;;;;;18.48;77.13;99533.97;5029324;28;20040;-84
2022/06/24 02:40:45;;;;;;;1.90;1.10;;;;;;;18.64;77.04;99536.72;5030352;28;20037;-85
2022/06/24 02:43:18;;;;;;;2.65;1.58;;;;;;;18.73;76.44;99532.72;5046220;28;20125;-85
2022/06/24 02:45:49;;;;;;;2.15;1.42;;;;;;;18.56;76.18;99504.19;5049098;28;20025;-85
2022/06/24 02:48:16;;;;;;;3.53;1.88;;;;;;;18.58;76.54;99521.00;5037828;28;20061;-86
2022/06/24 02:50:44;;;;;;;1.92;1.52;;;;;;;18.54;76.65;99522.13;5049333;28;20068;-88
2022/06/24 02:53:10;;;;;;;3.95;2.75;;;;;;;18.61;74.94;99520.84;5047609;28;20517;-90
2022/06/24 02:55:38;;;;;;;2.30;1.70;;;;;;;18.75;74.55;99528.16;5048818;28;20041;-91
2022/06/24 02:58:05;;;;;;;4.18;2.00;;;;;;;18.69;73.83;99518.66;5039267;28;20594;-89
2022/06/24 03:00:32;;;;;;;3.97;1.60;;;;;;;18.54;74.28;99506.09;5030230;28;20096;-93
2022/06/24 03:02:57;;;;;;;4.25;3.13;;;;;;;18.62;75.08;99527.94;5046099;28;20041;-88
2022/06/24 03:05:23;;;;;;;3.47;2.58;;;;;;;18.41;75.80;99516.50;5049507;28;20079;-88
2022/06/24 03:07:49;;;;;;;3.95;2.03;;;;;;;18.43;76.83;99522.66;5049033;28;20036;-86
2022/06/24 03:10:15;;;;;;;3.15;1.48;;;;;;;18.67;76.97;99549.94;5046295;28;20103;-86
2022/06/24 03:12:41;;;;;;;2.20;1.42;;;;;;;18.78;76.50;99536.91;5035482;28;20048;-88
2022/06/24 03:15:07;;;;;;;5.15;2.40;;;;;;;18.79;76.28;99537.75;5028671;28;20033;-86
2022/06/24 03:17:33;;;;;;;2.00;1.55;;;;;;;18.93;76.64;99551.28;5037836;28;20036;-86
2022/06/24 03:19:59;;;;;;;1.92;1.38;;;;;;;18.89;76.64;99532.81;5047023;28;20049;-86
2022/06/24 03:22:24;;;;;;;2.72;1.73;;;;;;;18.62;76.55;99506.56;5048288;28;20032;-87
2022/06/24 03:24:49;;;;;;;3.42;2.13;;;;;;;18.96;76.83;99548.47;5048576;28;20610;-89
2022/06/24 03:27:15;;;;;;;3.25;2.78;;;;;;;18.63;76.63;99508.31;5045239;28;20033;-90
2022/06/24 03:29:40;;;;;;;2.25;1.55;;;;;;;18.63;76.90;99523.44;5028171;28;20034;-90
2022/06/24 03:32:06;;;;;;;4.40;2.65;;;;;;;18.64;76.79;99533.19;5033574;28;20081;-84
2022/06/24 03:34:32;;;;;;;3.08;1.98;;;;;;;18.57;77.83;99549.53;5047625;28;20142;-85
2022/06/24 03:36:57;;;;;;;4.35;2.50;;;;;;;18.42;78.62;99548.47;5048161;28;20036;-85
2022/06/24 03:39:22;;;;;;;3.05;2.22;;;;;;;18.30;78.76;99513.53;5040149;28;20127;-89
2022/06/24 03:41:48;;;;;;;5.13;2.60;;;;;;;18.58;78.95;99556.63;5034531;28;20088;-89
2022/06/24 03:44:13;;;;;;;4.55;2.72;;;;;;;18.47;79.48;99547.41;5028042;28;20036;-88
2022/06/24 03:46:39;;;;;;;3.25;1.83;;;;;;;18.64;79.55;99557.25;5044935;28;20422;-86
2022/06/24 03:49:04;;;;;;;5.25;3.20;;;;;;;18.82;78.81;99568.81;5045686;28;20085;-84
2022/06/24 03:51:30;;;;;;;4.38;2.55;;;;;;;18.75;79.11;99549.53;5047231;28;20041;-86
2022/06/24 03:53:55;;;;;;;3.85;2.35;;;;;;;18.78;78.62;99536.91;5048368;28;20099;-87
2022/06/24 03:56:21;;;;;;;3.63;2.40;;;;;;;19.14;76.63;99556.47;5046939;28;20040;-86
2022/06/24 03:58:46;;;;;;;6.50;2.17;;;;;;;19.00;76.99;99535.81;5046338;28;20029;-86
2022/06/24 04:01:12;;;;;;;3.08;1.98;;;;;;;19.19;77.39;99548.22;5048219;28;20551;-86
2022/06/24 04:03:37;;;;;;;3.63;2.63;;;;;;;19.21;76.99;99552.53;5047367;28;20530;-86
2022/06/24 04:06:03;;;;;;;4.78;2.42;;;;;;;19.47;76.47;99569.00;5046525;28;20036;-86
2022/06/24 04:08:28;;;;;;;4.28;3.28;;;;;;;19.38;76.40;99562.31;5046874;28;20392;-89
2022/06/24 04:10:54;;;;;;;5.43;3.67;;;;;;;19.71;75.81;99566.81;5042058;28;20045;-85
2022/06/24 04:13:19;;;;;;;4.60;2.75;;;;;;;19.33;76.64;99564.38;5047400;28;20051;-85
2022/06/24 04:15:51;;;;;;;7.55;3.55;;;;;;;19.63;76.45;99556.53;5047322;28;20029;-84
2022/06/24 04:18:17;;;;;;;3.13;1.95;;;;;;;19.77;76.96;99560.28;5029488;28;20029;-84
2022/06/24 04:20:42;;;;;;;3.17;1.65;;;;;;;19.96;75.62;99530.69;5037252;28;20581;-85
2022/06/24 04:23:08;;;;;;;4.13;2.72;;;;;;;20.06;75.68;99541.72;5038690;28;20045;-84
2022/06/24 04:25:34;;;;;;;5.55;3.38;;;;;;;20.28;75.07;99546.72;5047135;28;20041;-86
2022/06/24 04:28:00;;;;;;;3.53;2.65;;;;;;;20.51;74.07;99545.38;5037912;28;20547;-85
2022/06/24 04:30:26;;;;;;;4.32;2.40;;;;;;;20.37;74.04;99512.25;5037499;28;20127;-85
2022/06/24 04:32:51;;;;;;;4.63;3.05;;;;;;;20.60;73.44;99514.50;5025501;28;20515;-86
2022/06/24 04:35:18;;;;;;;4.03;2.08;;;;;;;20.79;72.47;99530.38;5035933;28;20033;-85
2022/06/24 04:37:43;;;;;;;7.97;2.58;;;;;;;20.95;72.30;99544.59;5032589;28;20037;-86
2022/06/24 04:40:11;;;;;;;5.18;3.13;;;;;;;20.90;72.11;99535.97;5027236;28;20029;-86
2022/06/24 04:42:37;;;;;;;8.25;5.15;;;;;;;21.01;71.85;99533.50;5040272;28;20484;-89
2022/06/24 04:45:03;;;;;;;9.00;4.43;;;;;;;20.99;71.43;99513.97;5026631;28;20052;-86
2022/06/24 04:47:29;;;;;;;6.00;2.55;;;;;;;21.11;71.09;99526.59;5026690;28;20095;-85
2022/06/24 04:49:55;;;;;;;4.45;2.45;;;;;;;21.44;70.93;99535.31;5027017;28;20025;-85
2022/06/24 04:52:21;;;;;;;4.32;2.75;;;;;;;21.50;68.98;99534.13;5045470;28;20094;-87
2022/06/24 04:54:47;;;;;;;4.78;2.97;;;;;;;21.26;70.16;99532.84;5031227;28;20039;-87
2022/06/24 04:57:14;;;;;;;6.60;4.57;;;;;;;21.45;70.58;99531.69;5042576;28;20541;-86
2022/06/24 04:59:39;;;;;;;5.15;2.22;;;;;;;21.72;69.25;99534.50;5025753;28;20659;-86
2022/06/24 05:02:06;;;;;;;17.33;3.10;;;;;;;21.59;69.41;99525.50;5026978;28;20044;-85
2022/06/24 05:04:31;;;;;;;4.53;3.45;;;;;;;21.84;69.63;99543.56;5040756;28;20041;-84
2022/06/24 05:06:56;;;;;;;10.60;3.67;;;;;;;21.52;69.83;99546.50;5046212;28;20033;-84
2022/06/24 05:09:22;;;;;;;5.28;3.00;;;;;;;21.74;68.65;99539.78;5027373;28;20037;-84
2022/06/24 05:11:50;;;;;;;4.40;2.90;;;;;;;21.83;68.03;99525.75;5030353;28;20036;-85
2022/06/24 05:14:16;;;;;;;4.05;3.08;;;;;;;22.07;67.12;99530.50;5039810;28;20037;-85
2022/06/24 05:16:42;;;;;;;5.28;3.38;;;;;;;22.28;65.82;99520.16;5043608;28;20048;-85
2022/06/24 05:19:09;;;;;;;4.35;2.95;;;;;;;22.73;65.78;99542.25;5035584;28;20029;-87
2022/06/24 05:21:35;;;;;;;3.47;2.75;;;;;;;22.35;64.90;99532.25;5039030;28;20064;-85
2022/06/24 05:24:01;;;;;;;4.75;2.75;;;;;;;22.41;65.23;99534.50;5045348;28;20112;-84
2022/06/24 05:26:26;;;;;;;6.72;3.53;;;;;;;22.35;65.22;99565.38;5046813;28;20045;-85
2022/06/24 05:28:52;;;;;;;4.85;3.03;;;;;;;22.56;65.07;99545.22;5046081;28;20025;-85
2022/06/24 05:31:17;;;;;;;7.90;3.63;;;;;;;22.24;66.93;99567.00;5046301;28;20031;-85
2022/06/24 05:33:43;;;;;;;5.47;4.15;;;;;;;22.47;66.32;99560.13;5048318;28;20434;-85
2022/06/24 05:36:09;;;;;;;6.65;4.70;;;;;;;22.95;65.34;99555.09;5050483;28;20425;-84
2022/06/24 05:38:35;;;;;;;5.88;3.08;;;;;;;23.33;64.85;99567.75;5049921;28;20507;-85
2022/06/24 05:41:02;;;;;;;3.67;2.42;;;;;;;23.32;65.36;99566.00;5049435;28;20033;-85
2022/06/24 05:43:27;;;;;;;6.03;3.38;;;;;;;23.05;65.26;99563.41;5050298;28;20111;-85
2022/06/24 05:45:53;;;;;;;5.95;3.67;;;;;;;23.24;63.36;99577.31;5050041;28;20550;-85
2022/06/24 05:48:18;;;;;;;5.88;3.75;;;;;;;23.30;62.34;99554.50;5050421;28;20031;-84
2022/06/24 05:50:44;;;;;;;9.43;2.95;;;;;;;23.97;61.21;99566.81;5049678;28;20033;-84
2022/06/24 05:55:59;;;;;;;7.00;3.15;;;;;;;24.42;59.01;99550.94;5049779;28;20043;-83
2022/06/24 05:58:28;;;;;;;5.80;2.63;;;;;;;24.52;60.24;99548.41;5049938;28;20051;-84
2022/06/24 06:00:54;;;;;;;7.03;3.35;;;;;;;24.21;58.64;99550.69;5049895;28;20033;-84
2022/06/24 06:03:22;;;;;;;5.82;3.35;;;;;;;24.41;59.00;99537.59;5050049;28;20052;-87
2022/06/24 06:05:48;;;;;;;3.33;2.42;;;;;;;25.17;57.23;99551.59;5049614;28;20036;-85
2022/06/24 06:08:15;;;;;;;7.85;3.38;;;;;;;25.29;55.90;99566.00;5050111;28;20041;-83
2022/06/24 06:10:40;;;;;;;6.30;3.92;;;;;;;25.45;56.17;99569.19;5050034;28;20029;-85
2022/06/24 06:13:06;;;;;;;5.13;3.45;;;;;;;24.81;60.19;99569.66;5049794;28;20414;-87
2022/06/24 06:15:32;;;;;;;6.05;3.30;;;;;;;25.27;58.03;99557.13;5049977;28;20036;-86
2022/06/24 06:18:01;;;;;;;5.75;3.00;;;;;;;25.08;57.46;99536.13;5050102;28;20538;-85
2022/06/24 06:20:26;;;;;;;3.97;2.83;;;;;;;25.83;56.37;99570.69;5049806;28;20033;-85
2022/06/24 06:22:52;;;;;;;4.28;2.67;;;;;;;26.07;53.96;99539.97;5050270;28;20033;-87
2022/06/24 06:25:17;;;;;;;9.07;5.07;;;;;;;25.97;54.05;99561.47;5049421;28;20033;-85
2022/06/24 06:27:44;;;;;;;5.60;2.83;;;;;;;26.38;55.11;99568.03;5048278;28;20041;-85
2022/06/24 06:30:10;;;;;;;3.95;3.00;;;;;;;26.06;53.40;99573.41;5049028;28;20116;-84
2022/06/24 06:32:35;;;;;;;4.68;2.90;;;;;;;25.81;55.28;99551.06;5049638;28;20086;-86
2022/06/24 06:35:02;;;;;;;3.80;3.25;;;;;;;25.91;56.27;99561.97;5049455;28;20960;-86
2022/06/24 06:37:27;;;;;;;6.63;3.00;;;;;;;26.18;56.70;99572.41;5049326;28;20399;-84
2022/06/24 06:39:52;;;;;;;4.28;2.85;;;;;;;26.89;52.25;99566.50;5049339;28;20059;-84
2022/06/24 06:42:19;;;;;;;4.45;2.65;;;;;;;26.80;52.26;99578.09;5049153;28;20467;-85
2022/06/24 06:44:44;;;;;;;7.82;2.08;;;;;;;26.99;51.28;99569.28;5048004;28;20036;-85
2022/06/24 06:47:10;;;;;;;3.50;2.13;;;;;;;26.31;51.69;99563.28;5049113;28;20036;-86
2022/06/24 06:49:35;;;;;;;2.72;2.08;;;;;;;26.05;53.77;99566.28;5047025;28;20036;-84
2022/06/24 06:52:01;;;;;;;4.90;2.22;;;;;;;26.22;53.34;99594.63;5049228;28;20060;-89
2022/06/24 06:54:26;;;;;;;3.58;2.38;;;;;;;26.63;52.36;99561.44;5048336;28;20129;-86
2022/06/24 06:56:52;;;;;;;2.60;2.20;;;;;;;27.13;54.81;99587.06;5048983;28;20021;-84
2022/06/24 06:59:17;;;;;;;3.70;2.30;;;;;;;27.24;49.24;99578.84;5062547;28;20056;-84
2022/06/24 07:01:42;;;;;;;3.40;2.58;;;;;;;27.13;51.37;99570.81;5048381;28;20036;-85
2022/06/24 07:04:08;;;;;;;3.15;2.35;;;;;;;27.19;54.60;99562.16;5048379;28;20128;-84
2022/06/24 07:06:34;;;;;;;7.82;1.70;;;;;;;27.62;49.72;99549.44;5047749;28;20032;-84
2022/06/24 07:08:59;;;;;;;2.28;1.60;;;;;;;26.69;50.48;99543.00;5048488;28;20036;-86
2022/06/24 07:11:25;;;;;;;3.42;1.65;;;;;;;26.59;52.73;99534.78;5048120;28;20035;-85
2022/06/24 07:13:51;;;;;;;2.72;1.88;;;;;;;27.27;51.53;99532.56;5048807;28;20143;-84
2022/06/24 07:16:16;;;;;;;2.78;1.20;;;;;;;27.29;52.12;99544.09;5046317;28;20033;-85
2022/06/24 07:18:41;;;;;;;3.83;1.83;;;;;;;27.33;51.48;99561.00;5048943;28;20025;-86
2022/06/24 07:21:07;;;;;;;4.43;1.55;;;;;;;27.55;49.75;99569.94;5048610;28;20134;-86
2022/06/24 07:23:33;;;;;;;2.83;1.58;;;;;;;27.85;50.67;99526.56;5046648;28;20049;-85
2022/06/24 07:25:59;;;;;;;2.30;1.55;;;;;;;28.20;49.83;99562.34;5047803;28;20057;-85
2022/06/24 07:28:27;;;;;;;3.97;2.40;;;;;;;27.91;49.71;99502.63;5048250;28;20032;-85
2022/06/24 07:30:52;;;;;;;3.10;1.90;;;;;;;28.27;49.25;99521.97;5047604;28;20072;-85
2022/06/24 07:33:18;;;;;;;2.67;1.67;;;;;;;28.67;48.46;99540.00;5047583;28;20540;-86
2022/06/24 07:35:44;;;;;;;2.75;2.15;;;;;;;28.36;49.01;99529.25;5048422;28;20530;-84
2022/06/24 07:38:09;;;;;;;2.92;1.65;;;;;;;27.74;49.64;99490.59;5046849;28;20051;-86
2022/06/24 07:40:35;;;;;;;5.43;2.13;;;;;;;28.02;46.31;99521.50;5048073;28;20059;-85
2022/06/24 07:43:01;;;;;;;4.10;2.25;;;;;;;28.22;47.05;99507.00;5048135;28;20036;-85
2022/06/24 07:45:26;;;;;;;4.22;1.77;;;;;;;28.55;49.02;99509.44;5046615;28;20037;-86
2022/06/24 07:47:52;;;;;;;7.13;2.20;;;;;;;28.73;48.53;99502.31;5048163;28;20025;-86
2022/06/24 07:50:18;;;;;;;1.80;1.27;;;;;;;28.83;44.75;99507.72;5048291;28;20758;-87
2022/06/24 07:52:43;;;;;;;2.63;1.70;;;;;;;28.96;48.39;99517.41;5047560;28;20537;-85
2022/06/24 07:57:53;;;;;;;2.85;1.98;;;;;;;29.29;47.81;99507.94;5047505;28;20094;-86
2022/06/24 08:00:19;;;;;;;2.35;1.42;;;;;;;29.44;46.48;99490.16;5047598;28;20037;-86
2022/06/24 08:02:44;;;;;;;2.80;1.70;;;;;;;30.36;42.28;99498.34;5046318;28;20483;-86
2022/06/24 08:05:10;;;;;;;2.88;1.38;;;;;;;30.32;42.36;99462.47;5045815;28;20040;-87
2022/06/24 08:07:35;;;;;;;2.40;1.45;;;;;;;29.51;45.66;99478.69;5048135;28;20056;-86
2022/06/24 08:10:01;;;;;;;2.88;1.95;;;;;;;29.49;41.72;99491.53;5047949;28;20052;-86
2022/06/24 08:12:26;;;;;;;3.28;2.28;;;;;;;29.94;42.65;99497.06;5047535;28;20029;-86
2022/06/24 08:14:52;;;;;;;2.40;1.42;;;;;;;30.03;40.19;99472.69;5047329;28;20024;-86
2022/06/24 08:17:17;;;;;;;2.50;1.80;;;;;;;30.63;41.60;99502.91;5047652;28;20078;-86
2022/06/24 08:19:44;;;;;;;1.55;1.08;;;;;;;30.92;43.69;99499.00;5047732;28;20426;-85
2022/06/24 08:22:10;;;;;;;2.10;1.35;;;;;;;30.36;39.33;99493.75;5047216;28;20056;-85
2022/06/24 08:24:35;;;;;;;1.98;1.38;;;;;;;29.78;40.53;99491.41;5047033;28;20479;-85
2022/06/24 08:27:01;;;;;;;3.00;1.67;;;;;;;29.79;41.58;99485.81;5047291;28;20039;-85
2022/06/24 08:29:27;;;;;;;3.63;2.15;;;;;;;29.68;40.45;99496.91;5047004;28;20521;-85
2022/06/24 08:31:52;;;;;;;2.42;1.40;;;;;;;29.73;39.96;99489.13;5047168;28;20028;-86
2022/06/24 08:34:21;;;;;;;2.50;1.48;;;;;;;30.55;36.91;99510.97;5048162;28;20486;-86
2022/06/24 08:36:46;;;;;;;1.13;0.70;;;;;;;31.31;37.15;99485.00;5047673;28;20140;-85
2022/06/24 08:39:12;;;;;;;2.83;1.40;;;;;;;31.14;37.34;99489.50;5047341;28;20100;-85
2022/06/24 08:41:38;;;;;;;2.28;1.38;;;;;;;31.62;35.41;99480.91;5046507;28;20041;-85
2022/06/24 08:44:04;;;;;;;2.17;1.42;;;;;;;31.20;37.09;99505.22;5046969;28;20047;-84
2022/06/24 08:46:29;;;;;;;1.70;1.38;;;;;;;31.33;37.68;99482.97;5046786;28;20116;-85
2022/06/24 08:48:58;;;;;;;2.03;1.13;;;;;;;31.57;35.10;99492.31;5047050;28;20033;-85
2022/06/24 08:51:25;;;;;;;1.83;1.08;;;;;;;31.39;35.04;99497.81;5046823;28;20040;-86
2022/06/24 08:53:55;;;;;;;1.80;1.17;;;;;;;31.62;32.61;99489.09;5041486;28;20057;-87
2022/06/24 08:56:21;;;;;;;1.45;0.77;;;;;;;31.93;32.29;99479.31;5027430;28;20489;-88
2022/06/24 08:58:47;;;;;;;1.30;0.95;;;;;;;32.21;30.50;99470.00;5027059;28;20029;-88
2022/06/24 09:01:14;;;;;;;1.42;0.80;;;;;;;32.48;29.56;99477.03;5027494;28;20025;-88
2022/06/24 09:03:39;;;;;;;1.70;1.08;;;;;;;32.65;31.64;99467.84;5045763;28;20132;-86
2022/06/24 09:06:16;;;;;;;1.17;0.70;;;;;;;32.56;30.11;99457.09;5047084;28;20116;-86
2022/06/24 09:08:49;;;;;;;1.55;0.80;;;;;;;32.72;30.95;99468.03;5046316;28;20060;-87
2022/06/24 09:11:15;;;;;;;5.53;1.30;;;;;;;33.28;30.08;99489.97;5046521;28;20103;-87
2022/06/24 09:13:49;;;;;;;2.80;1.10;;;;;;;33.36;29.02;99465.34;5046525;28;20537;-85
2022/06/24 09:16:17;;;;;;;1.37;1.10;;;;;;;32.95;28.89;99481.84;5045072;28;20041;-84
2022/06/24 09:18:53;;;;;;;3.22;1.83;;;;;;;32.71;32.20;99473.66;5046706;28;20037;-84
2022/06/24 09:21:28;;;;;;;3.40;2.50;;;;;;;32.89;29.35;99482.53;5046653;28;20031;-86
2022/06/24 09:23:57;;;;;;;2.47;1.27;;;;;;;33.22;28.38;99487.94;5046464;28;20037;-84
2022/06/24 09:26:39;;;;;;;1.25;0.68;;;;;;;33.19;23.89;99480.94;5046551;28;20071;-84
2022/06/24 09:29:06;;;;;;;1.85;1.15;;;;;;;32.90;26.28;99480.63;5046425;28;20036;-83
2022/06/24 09:31:32;;;;;;;4.45;1.08;;;;;;;32.40;31.26;99468.88;5046228;28;20032;-84
2022/06/24 09:34:12;;;;;;;2.75;2.35;;;;;;;32.71;27.75;99465.47;5043922;28;20049;-85
2022/06/24 09:36:41;;;;;;;1.33;1.05;;;;;;;32.79;28.47;99454.53;5047006;28;20036;-84
2022/06/24 09:39:09;;;;;;;1.60;1.17;;;;;;;32.93;29.73;99470.22;5028876;28;20037;-85
2022/06/24 09:41:55;;;;;;;1.10;0.88;;;;;;;32.26;28.56;99454.84;5030746;28;20094;-85
2022/06/24 09:44:22;;;;;;;1.33;0.90;;;;;;;31.57;32.18;99449.56;5046417;28;20494;-84
2022/06/24 09:47:01;;;;;;;2.10;1.27;;;;;;;31.44;39.21;99442.84;5045982;28;20044;-84
2022/06/24 09:49:26;;;;;;;1.77;0.88;;;;;;;32.50;32.23;99461.34;5046427;28;20561;-84
2022/06/24 09:51:54;;;;;;;1.60;0.85;;;;;;;32.92;28.94;99459.47;5046825;28;20037;-85
2022/06/24 09:54:20;;;;;;;2.78;1.63;;;;;;;32.62;33.31;99443.59;5045307;28;20049;-85
2022/06/24 09:56:47;;;;;;;1.52;1.10;;;;;;;32.80;29.98;99448.91;5046487;28;20021;-85
2022/06/24 10:02:00;;;;;;;0.88;0.80;;;;;;;32.34;29.53;99444.97;5045532;28;20094;-85
2022/06/24 10:04:27;;;;;;;2.35;1.17;;;;;;;32.32;35.18;99469.72;5046511;28;20037;-86
2022/06/24 10:06:55;;;;;;;2.22;0.77;;;;;;;32.18;33.29;99463.03;5045874;28;20033;-85
2022/06/24 10:09:27;;;;;;;1.73;1.30;;;;;;;32.28;31.56;99441.03;5046074;28;20572;-85
2022/06/24 10:11:56;;;;;;;1.88;0.95;;;;;;;31.83;27.56;99464.13;5045875;28;20704;-86
2022/06/24 10:14:22;;;;;;;2.38;1.25;;;;;;;32.30;28.11;99426.22;5046359;28;20743;-86
2022/06/24 10:16:50;;;;;;;0.88;0.82;;;;;;;32.68;28.23;99430.34;5046194;28;20041;-86
2022/06/24 10:19:18;;;;;;;2.05;0.90;;;;;;;32.34;29.37;99445.81;5044120;28;20622;-85
2022/06/24 10:21:46;;;;;;;1.48;1.08;;;;;;;32.22;26.73;99428.91;5049547;28;20075;-85
2022/06/24 10:24:14;;;;;;;1.05;0.82;;;;;;;32.48;26.03;99433.38;5049704;28;20036;-85
2022/06/24 10:26:42;;;;;;;1.58;0.90;;;;;;;32.60;24.97;99442.91;5049547;28;20033;-87
2022/06/24 10:29:08;;;;;;;1.20;0.77;;;;;;;33.50;26.78;99458.28;5049927;28;20076;-86
2022/06/24 10:31:48;;;;;;;2.58;1.38;;;;;;;33.18;23.48;99451.94;5049410;28;20084;-87
2022/06/24 10:34:20;;;;;;;1.27;0.82;;;;;;;33.13;24.84;99454.28;5049018;28;20037;-87
2022/06/24 10:36:47;;;;;;;1.95;1.02;;;;;;;33.73;24.70;99436.50;5049789;28;20044;-85
2022/06/24 10:39:18;;;;;;;1.42;0.70;;;;;;;33.58;28.58;99413.66;5049323;28;20033;-85
2022/06/24 10:41:44;;;;;;;1.58;1.30;;;;;;;33.63;26.08;99451.41;5049425;28;20033;-85
2022/06/24 10:44:18;;;;;;;0.70;0.70;;;;;;;33.44;24.01;99449.97;5049136;28;20560;-86
2022/06/24 10:46:44;;;;;;;1.23;0.80;;;;;;;32.90;26.76;99447.88;5049310;28;20028;-85
2022/06/24 10:49:09;;;;;;;1.75;0.90;;;;;;;31.95;26.35;99425.47;5049227;28;20071;-85
2022/06/24 10:51:35;;;;;;;1.75;1.05;;;;;;;31.58;25.76;99444.97;5049024;28;20082;-84
2022/06/24 10:54:06;;;;;;;2.20;1.15;;;;;;;32.23;27.30;99447.00;5049217;28;20085;-85
2022/06/24 10:56:38;;;;;;;3.75;1.58;;;;;;;32.30;26.45;99439.88;5049095;28;20029;-87
2022/06/24 10:59:04;;;;;;;1.55;1.13;;;;;;;32.11;28.11;99418.34;5048984;28;20033;-86
2022/06/24 11:01:30;;;;;;;1.95;0.90;;;;;;;32.67;26.60;99418.53;5049045;28;20391;-86
2022/06/24 11:03:56;;;;;;;2.10;0.80;;;;;;;32.63;26.50;99426.19;5049309;28;20518;-86
2022/06/24 11:06:22;;;;;;;0.82;0.77;;;;;;;32.96;24.98;99417.97;5049060;28;20075;-87
2022/06/24 11:08:47;;;;;;;1.27;0.90;;;;;;;32.77;28.27;99405.56;5049110;28;20060;-85
2022/06/24 11:11:26;;;;;;;2.40;1.00;;;;;;;33.14;24.69;99438.78;5048631;28;20473;-86
2022/06/24 11:13:52;;;;;;;1.58;0.90;;;;;;;32.34;25.70;99415.81;5048531;28;20065;-87
2022/06/24 11:16:17;;;;;;;0.88;0.80;;;;;;;31.85;27.22;99402.94;5048506;28;20095;-87
2022/06/24 11:18:43;;;;;;;2.05;1.27;;;;;;;32.31;26.06;99440.69;5048350;28;20087;-86
2022/06/24 11:21:09;;;;;;;1.95;1.27;;;;;;;32.35;29.51;99428.44;5047842;28;20043;-84
2022/06/24 11:23:37;;;;;;;2.65;1.40;;;;;;;32.33;26.40;99435.91;5048720;28;20068;-85
2022/06/24 11:26:05;;;;;;;0.80;0.75;;;;;;;32.44;25.40;99445.66;5048114;28;20039;-86
2022/06/24 11:28:34;;;;;;;2.72;1.38;;;;;;;33.09;25.74;99449.34;5047470;28;20426;-85
2022/06/24 11:31:23;;;;;;;2.33;1.40;;;;;;;32.82;26.42;99426.88;5046794;28;20502;-84
2022/06/24 11:33:58;;;;;;;1.77;1.20;;;;;;;32.23;26.84;99437.97;5048326;28;20037;-84
2022/06/24 11:36:26;;;;;;;1.17;0.88;;;;;;;32.02;29.66;99439.25;5048090;28;20035;-84
2022/06/24 11:38:57;;;;;;;1.45;0.95;;;;;;;32.42;28.01;99444.97;5047609;28;20461;-85
2022/06/24 11:41:31;;;;;;;2.30;1.15;;;;;;;31.76;31.10;99393.03;5048057;28;20041;-85
2022/06/24 11:43:57;;;;;;;1.80;0.95;;;;;;;32.04;27.64;99426.34;5048194;28;20442;-85
2022/06/24 11:46:23;;;;;;;3.05;2.08;;;;;;;32.33;28.08;99418.69;5046229;28;20025;-84